createdAt,value
2023-01-13T00:01:08.234Z,86.87
2023-01-13T00:03:35.207Z,86.46
2023-01-13T00:06:01.981Z,85.79
2023-01-13T00:08:28.347Z,85.37
2023-01-13T00:10:54.683Z,84.77
2023-01-13T00:13:26.435Z,84.35
2023-01-13T00:16:03.271Z,84.60
2023-01-13T00:18:29.835Z,84.27
2023-01-13T00:21:03.385Z,84.51
2023-01-13T00:23:31.563Z,84.14
2023-01-13T00:25:59.974Z,83.28
2023-01-13T00:28:26.736Z,82.63
2023-01-13T00:30:53.165Z,82.93
2023-01-13T00:33:19.756Z,82.92
2023-01-13T00:35:56.385Z,83.41
2023-01-13T00:38:22.707Z,83.00
2023-01-13T00:41:07.283Z,83.14
2023-01-13T00:43:35.567Z,82.97
2023-01-13T00:46:02.956Z,83.50
2023-01-13T00:48:30.435Z,83.49
2023-01-13T00:51:00.856Z,83.63
2023-01-13T00:53:28.562Z,83.66
2023-01-13T00:56:05.681Z,83.73
2023-01-13T00:58:33.832Z,84.44
2023-01-13T01:01:05.668Z,84.73
2023-01-13T01:03:32.400Z,84.54
2023-01-13T01:06:06.013Z,84.84
2023-01-13T01:08:32.773Z,84.78
2023-01-13T01:11:03.757Z,85.28
2023-01-13T01:13:30.317Z,84.88
2023-01-13T01:15:56.649Z,85.33
2023-01-13T01:18:23.035Z,85.48
2023-01-13T01:20:49.400Z,85.55
2023-01-13T01:23:15.764Z,85.32
2023-01-13T01:25:42.101Z,85.64
2023-01-13T01:28:08.484Z,85.46
2023-01-13T01:30:34.843Z,85.64
2023-01-13T01:33:03.095Z,85.23
2023-01-13T01:35:29.425Z,84.76
2023-01-13T01:37:55.822Z,85.38
2023-01-13T01:40:22.212Z,85.36
2023-01-13T01:43:07.345Z,85.50
2023-01-13T01:45:33.815Z,85.87
2023-01-13T01:48:03.537Z,85.39
2023-01-13T01:50:31.331Z,85.13
2023-01-13T01:53:05.227Z,85.44
2023-01-13T01:55:36.817Z,85.75
2023-01-13T01:58:32.241Z,85.44
2023-01-13T02:00:59.373Z,85.66
2023-01-13T02:03:25.911Z,85.42
2023-01-13T02:05:52.521Z,85.28
2023-01-13T02:08:19.537Z,85.23
2023-01-13T02:10:53.027Z,84.60
2023-01-13T02:13:22.440Z,84.67
2023-01-13T02:16:04.548Z,84.60
2023-01-13T02:19:05.481Z,84.02
2023-01-13T02:22:05.838Z,84.00
2023-01-13T02:25:05.726Z,83.94
2023-01-13T02:27:54.447Z,83.97
2023-01-13T02:31:07.771Z,83.86
2023-01-13T02:33:59.036Z,82.93
2023-01-13T02:36:49.008Z,83.05
2023-01-13T02:39:42.954Z,82.86
2023-01-13T02:42:32.674Z,82.84
2023-01-13T02:45:08.991Z,82.70
2023-01-13T02:47:39.281Z,82.54
2023-01-13T02:50:12.797Z,82.26
2023-01-13T02:52:47.939Z,82.38
2023-01-13T02:55:30.858Z,82.10
2023-01-13T02:58:00.539Z,81.96
2023-01-13T03:00:27.953Z,81.23
2023-01-13T03:02:54.419Z,81.74
2023-01-13T03:05:20.805Z,81.44
2023-01-13T03:08:08.776Z,81.60
2023-01-13T03:10:41.232Z,81.01
2023-01-13T03:13:27.191Z,81.23
2023-01-13T03:16:17.138Z,81.30
2023-01-13T03:18:58.537Z,80.78
2023-01-13T03:21:34.315Z,80.58
2023-01-13T03:24:09.267Z,81.14
2023-01-13T03:26:35.630Z,80.35
2023-01-13T03:29:10.782Z,80.43
2023-01-13T03:31:48.117Z,80.35
2023-01-13T03:34:21.914Z,80.49
2023-01-13T03:36:54.078Z,80.47
2023-01-13T03:39:27.759Z,80.91
2023-01-13T03:41:59.952Z,81.19
2023-01-13T03:44:34.347Z,80.92
2023-01-13T03:47:26.760Z,81.33
2023-01-13T03:49:56.090Z,81.38
2023-01-13T03:52:28.223Z,81.56
2023-01-13T03:55:06.780Z,81.38
2023-01-13T03:57:39.590Z,81.42
2023-01-13T04:00:10.292Z,81.16
2023-01-13T04:02:46.723Z,81.50
2023-01-13T04:05:14.182Z,81.27
2023-01-13T04:07:52.972Z,81.40
2023-01-13T04:10:33.602Z,81.39
2023-01-13T04:13:07.206Z,80.89
2023-01-13T04:15:37.544Z,80.90
2023-01-13T04:18:31.622Z,80.97
2023-01-13T04:21:00.825Z,80.76
2023-01-13T04:23:28.065Z,80.84
2023-01-13T04:25:54.645Z,80.65
2023-01-13T04:28:21.449Z,79.84
2023-01-13T04:30:48.327Z,80.41
2023-01-13T04:33:15.843Z,80.28
2023-01-13T04:35:42.326Z,80.27
2023-01-13T04:38:11.480Z,79.84
2023-01-13T04:40:38.559Z,79.91
2023-01-13T04:43:05.077Z,79.02
2023-01-13T04:45:31.803Z,78.81
2023-01-13T04:47:58.383Z,78.71
2023-01-13T04:50:24.814Z,78.44
2023-01-13T04:52:52.411Z,78.10
2023-01-13T04:55:20.882Z,78.03
2023-01-13T04:57:47.260Z,77.66
2023-01-13T05:00:19.148Z,78.20
2023-01-13T05:02:45.530Z,77.82
2023-01-13T05:05:12.215Z,77.81
2023-01-13T05:07:38.609Z,77.36
2023-01-13T05:10:05.468Z,77.87
2023-01-13T05:12:50.312Z,78.19
2023-01-13T05:15:35.460Z,78.17
2023-01-13T05:18:02.488Z,77.93
2023-01-13T05:20:28.965Z,78.42
2023-01-13T05:23:14.096Z,78.27
2023-01-13T05:25:44.203Z,78.49
2023-01-13T05:28:10.785Z,78.49
2023-01-13T05:30:42.671Z,78.80
2023-01-13T05:33:13.859Z,79.21
2023-01-13T05:35:44.992Z,79.11
2023-01-13T05:38:12.271Z,79.55
2023-01-13T05:40:59.454Z,79.29
2023-01-13T05:43:26.820Z,79.65
2023-01-13T05:46:00.692Z,80.05
2023-01-13T05:48:32.781Z,80.10
2023-01-13T05:51:00.206Z,80.09
2023-01-13T05:53:27.260Z,80.39
2023-01-13T05:55:54.130Z,80.12
2023-01-13T05:58:23.181Z,80.25
2023-01-13T06:00:50.142Z,80.55
2023-01-13T06:03:17.006Z,80.30
2023-01-13T06:05:43.706Z,80.11
2023-01-13T06:08:10.083Z,80.22
2023-01-13T06:10:36.837Z,80.17
2023-01-13T06:13:04.337Z,80.25
2023-01-13T06:15:31.672Z,79.89
2023-01-13T06:17:58.219Z,80.11
2023-01-13T06:20:25.351Z,79.56
2023-01-13T06:22:53.326Z,79.91
2023-01-13T06:25:48.912Z,79.63
2023-01-13T06:28:15.485Z,79.97
2023-01-13T06:30:47.882Z,79.87
2023-01-13T06:33:19.169Z,79.35
2023-01-13T06:35:51.999Z,79.52
2023-01-13T06:38:21.581Z,79.08
2023-01-13T06:40:48.267Z,79.08
2023-01-13T06:43:16.350Z,79.19
2023-01-13T06:45:44.558Z,79.29
2023-01-13T06:48:10.953Z,78.92
2023-01-13T06:50:37.411Z,78.76
2023-01-13T06:53:04.056Z,79.12
2023-01-13T06:55:30.463Z,79.08
2023-01-13T06:57:58.009Z,78.99
2023-01-13T07:00:26.458Z,79.40
2023-01-13T07:02:53.586Z,79.19
2023-01-13T07:05:21.085Z,79.69
2023-01-13T07:07:47.643Z,79.83
2023-01-13T07:10:22.187Z,80.34
2023-01-13T07:13:08.366Z,79.63
2023-01-13T07:15:35.067Z,80.02
2023-01-13T07:18:02.327Z,80.21
2023-01-13T07:20:30.043Z,79.92
2023-01-13T07:22:57.351Z,80.08
2023-01-13T07:25:24.419Z,80.38
2023-01-13T07:27:50.789Z,79.69
2023-01-13T07:30:17.471Z,79.92
2023-01-13T07:32:43.818Z,79.64
2023-01-13T07:35:10.215Z,79.30
2023-01-13T07:37:38.032Z,79.20
2023-01-13T07:40:05.013Z,78.89
2023-01-13T07:42:49.833Z,78.71
2023-01-13T07:45:16.202Z,78.43
2023-01-13T07:47:42.569Z,78.54
2023-01-13T07:50:09.838Z,78.35
2023-01-13T07:52:36.198Z,77.84
2023-01-13T07:55:02.644Z,78.06
2023-01-13T07:57:29.927Z,77.49
2023-01-13T07:59:56.372Z,77.80
2023-01-13T08:02:23.110Z,77.17
2023-01-13T08:04:49.692Z,77.26
2023-01-13T08:07:16.134Z,77.26
2023-01-13T08:09:42.539Z,76.21
2023-01-13T08:12:27.538Z,76.52
2023-01-13T08:14:54.167Z,76.89
2023-01-13T08:17:20.882Z,76.86
2023-01-13T08:19:47.476Z,76.43
2023-01-13T08:22:13.877Z,77.12
2023-01-13T08:24:40.334Z,76.25
2023-01-13T08:27:06.786Z,76.36
2023-01-13T08:29:33.193Z,76.97
2023-01-13T08:31:59.533Z,77.25
2023-01-13T08:34:25.938Z,77.41
2023-01-13T08:36:52.403Z,77.61
2023-01-13T08:39:18.886Z,77.47
2023-01-13T08:41:58.472Z,77.93
2023-01-13T08:44:30.145Z,78.57
2023-01-13T08:46:57.069Z,79.21
2023-01-13T08:49:24.637Z,79.11
2023-01-13T08:51:52.063Z,79.90
2023-01-13T08:54:19.591Z,79.70
2023-01-13T08:56:47.110Z,80.04
2023-01-13T08:59:18.999Z,80.69
2023-01-13T09:01:45.949Z,80.71
2023-01-13T09:04:17.503Z,81.31
2023-01-13T09:06:44.182Z,81.40
2023-01-13T09:09:10.575Z,81.80
2023-01-13T09:12:00.734Z,81.95
2023-01-13T09:14:31.490Z,81.84
2023-01-13T09:16:58.649Z,81.89
2023-01-13T09:19:26.261Z,81.98
2023-01-13T09:21:53.049Z,81.91
2023-01-13T09:24:20.047Z,82.11
2023-01-13T09:26:46.754Z,82.44
2023-01-13T09:29:13.784Z,82.93
2023-01-13T09:31:43.876Z,83.19
2023-01-13T09:34:36.655Z,83.36
2023-01-13T09:37:04.692Z,83.21
2023-01-13T09:39:32.564Z,83.47
2023-01-13T09:42:23.222Z,83.72
2023-01-13T09:44:55.632Z,82.87
2023-01-13T09:47:45.029Z,83.53
2023-01-13T09:50:14.391Z,83.02
2023-01-13T09:52:43.040Z,82.28
2023-01-13T09:55:16.230Z,82.36
2023-01-13T09:57:42.799Z,82.59
2023-01-13T10:00:16.963Z,82.36
2023-01-13T10:03:17.318Z,82.22
2023-01-13T10:05:43.687Z,82.34
2023-01-13T10:08:22.235Z,82.54
2023-01-13T10:10:51.837Z,82.54
2023-01-13T10:13:22.719Z,82.75
2023-01-13T10:16:02.722Z,83.02
2023-01-13T10:18:54.677Z,82.83
2023-01-13T10:21:48.109Z,83.34
2023-01-13T10:24:26.438Z,83.35
2023-01-13T10:27:10.276Z,83.59
2023-01-13T10:29:36.999Z,83.67
2023-01-13T10:32:03.509Z,83.76
2023-01-13T10:34:30.149Z,83.30
2023-01-13T10:37:08.254Z,82.96
2023-01-13T10:39:43.969Z,82.40
2023-01-13T10:42:18.234Z,82.84
2023-01-13T10:44:55.196Z,82.83
2023-01-13T10:47:30.725Z,82.42
2023-01-13T10:50:05.645Z,82.60
2023-01-13T10:52:36.825Z,82.48
2023-01-13T10:55:05.930Z,83.07
2023-01-13T10:57:36.945Z,83.20
2023-01-13T11:00:05.295Z,82.85
2023-01-13T11:02:34.146Z,83.09
2023-01-13T11:05:20.961Z,81.93
2023-01-13T11:07:50.489Z,82.34
2023-01-13T11:10:27.220Z,81.91
2023-01-13T11:12:57.511Z,81.61
2023-01-13T11:15:36.420Z,82.09
2023-01-13T11:18:16.779Z,82.08
2023-01-13T11:20:45.321Z,81.23
2023-01-13T11:23:36.952Z,81.26
2023-01-13T11:26:21.050Z,80.99
2023-01-13T11:28:59.925Z,80.84
2023-01-13T11:31:29.284Z,80.75
2023-01-13T11:34:29.713Z,80.32
2023-01-13T11:36:59.066Z,79.58
2023-01-13T11:40:05.611Z,78.97
2023-01-13T11:42:36.716Z,78.98
2023-01-13T11:45:16.835Z,78.65
2023-01-13T11:47:51.032Z,78.59
2023-01-13T11:50:40.035Z,78.44
2023-01-13T11:53:32.281Z,78.19
2023-01-13T11:56:24.495Z,77.62
2023-01-13T11:59:03.034Z,77.66
2023-01-13T12:02:02.360Z,77.81
2023-01-13T12:05:13.496Z,77.37
2023-01-13T12:07:46.794Z,76.98
2023-01-13T12:10:29.867Z,76.93
2023-01-13T12:13:24.060Z,77.24
2023-01-13T12:16:16.063Z,76.70
2023-01-13T12:18:54.760Z,76.49
2023-01-13T12:21:26.841Z,76.30
2023-01-13T12:24:23.717Z,76.53
2023-01-13T12:26:55.628Z,76.41
2023-01-13T12:29:38.025Z,76.37
2023-01-13T12:32:16.377Z,75.35
2023-01-13T12:34:58.466Z,76.01
2023-01-13T12:37:37.157Z,75.41
2023-01-13T12:40:36.384Z,76.06
2023-01-13T12:43:36.198Z,75.20
2023-01-13T12:46:23.934Z,75.46
2023-01-13T12:48:55.159Z,74.60
2023-01-13T12:52:03.280Z,74.47
2023-01-13T12:54:41.466Z,74.86
2023-01-13T12:57:16.908Z,74.92
2023-01-13T12:59:48.804Z,74.87
2023-01-13T13:02:15.854Z,74.63
2023-01-13T13:04:49.773Z,73.76
2023-01-13T13:07:36.997Z,74.48
2023-01-13T13:10:29.549Z,73.92
2023-01-13T13:13:17.694Z,74.22
2023-01-13T13:15:46.423Z,74.19
2023-01-13T13:18:23.667Z,73.94
2023-01-13T13:20:54.549Z,73.22
2023-01-13T13:23:48.913Z,73.65
2023-01-13T13:26:25.413Z,73.46
2023-01-13T13:29:24.124Z,73.75
2023-01-13T13:32:26.777Z,73.30
2023-01-13T13:35:05.441Z,73.35
2023-01-13T13:38:12.318Z,73.38
2023-01-13T13:40:59.673Z,73.47
2023-01-13T13:43:53.969Z,73.70
2023-01-13T13:46:46.857Z,73.61
2023-01-13T13:49:22.242Z,73.07
2023-01-13T13:52:05.155Z,72.60
2023-01-13T13:54:32.493Z,72.53
2023-01-13T13:56:59.359Z,72.46
2023-01-13T13:59:30.501Z,72.50
2023-01-13T14:02:03.693Z,73.02
2023-01-13T14:04:36.836Z,72.91
2023-01-13T14:07:18.044Z,73.15
2023-01-13T14:09:47.505Z,72.76
2023-01-13T14:12:23.151Z,72.31
2023-01-13T14:14:50.617Z,72.99
2023-01-13T14:17:25.334Z,72.69
2023-01-13T14:19:59.140Z,72.51
2023-01-13T14:22:25.786Z,72.93
2023-01-13T14:24:58.481Z,72.98
2023-01-13T14:27:27.678Z,73.47
2023-01-13T14:29:56.456Z,73.20
2023-01-13T14:32:29.841Z,73.60
2023-01-13T14:34:56.241Z,74.01
2023-01-13T14:37:25.746Z,73.46
2023-01-13T14:39:52.158Z,73.90
2023-01-13T14:42:18.980Z,73.44
2023-01-13T14:44:47.455Z,74.18
2023-01-13T14:47:24.676Z,73.26
2023-01-13T14:50:03.120Z,74.08
2023-01-13T14:52:33.121Z,74.00
2023-01-13T14:55:10.047Z,74.35
2023-01-13T14:57:39.423Z,74.08
2023-01-13T15:00:20.441Z,73.84
2023-01-13T15:02:53.427Z,73.72
2023-01-13T15:05:19.880Z,73.85
2023-01-13T15:07:59.322Z,72.87
2023-01-13T15:10:29.211Z,73.36
2023-01-13T15:12:58.340Z,73.60
2023-01-13T15:15:26.936Z,74.06
2023-01-13T15:17:53.646Z,73.57
2023-01-13T15:20:22.302Z,73.20
2023-01-13T15:22:50.059Z,73.25
2023-01-13T15:25:17.355Z,73.11
2023-01-13T15:27:45.675Z,72.96
2023-01-13T15:30:26.611Z,73.03
2023-01-13T15:32:55.086Z,73.17
2023-01-13T15:35:23.519Z,73.17
2023-01-13T15:37:50.645Z,72.63
2023-01-13T15:40:29.036Z,73.03
2023-01-13T15:43:13.872Z,73.58
2023-01-13T15:45:59.763Z,73.96
2023-01-13T15:48:30.601Z,73.60
2023-01-13T15:50:56.967Z,73.82
2023-01-13T15:53:23.877Z,73.79
2023-01-13T15:55:53.645Z,73.83
2023-01-13T15:58:24.059Z,74.01
2023-01-13T16:00:50.541Z,74.25
2023-01-13T16:03:17.102Z,74.50
2023-01-13T16:05:44.777Z,74.29
2023-01-13T16:08:19.569Z,74.09
2023-01-13T16:10:46.581Z,74.33
2023-01-13T16:13:13.975Z,74.67
2023-01-13T16:15:46.945Z,74.82
2023-01-13T16:18:19.836Z,74.77
2023-01-13T16:20:47.327Z,75.08
2023-01-13T16:23:13.711Z,75.16
2023-01-13T16:25:43.003Z,74.92
2023-01-13T16:28:19.964Z,75.32
2023-01-13T16:30:46.351Z,75.32
2023-01-13T16:33:12.767Z,75.20
2023-01-13T16:36:09.055Z,75.49
2023-01-13T16:38:25.596Z,75.65
2023-01-13T16:40:52.341Z,74.79
2023-01-13T16:43:18.751Z,75.56
2023-01-13T16:45:45.186Z,75.74
2023-01-13T16:48:19.595Z,76.07
2023-01-13T16:50:46.485Z,76.46
2023-01-13T16:53:12.939Z,77.79
2023-01-13T16:55:40.844Z,78.86
2023-01-13T16:58:16.475Z,80.79
2023-01-13T17:00:43.305Z,81.34
2023-01-13T17:03:09.748Z,81.78
2023-01-13T17:05:40.629Z,82.61
2023-01-13T17:08:07.081Z,83.14
2023-01-13T17:10:33.443Z,83.16
2023-01-13T17:13:04.527Z,82.44
2023-01-13T17:15:39.949Z,83.14
2023-01-13T17:18:06.358Z,83.20
2023-01-13T17:20:32.791Z,82.67
2023-01-13T17:22:59.183Z,83.01
2023-01-13T17:25:25.567Z,82.86
2023-01-13T17:27:51.975Z,82.80
2023-01-13T17:30:19.249Z,82.98
2023-01-13T17:32:45.686Z,83.25
2023-01-13T17:35:14.155Z,82.73
2023-01-13T17:37:40.557Z,83.01
2023-01-13T17:40:07.649Z,83.30
2023-01-13T17:42:34.104Z,83.30
2023-01-13T17:45:00.507Z,82.86
2023-01-13T17:47:26.876Z,82.39
2023-01-13T17:49:53.195Z,82.29
2023-01-13T17:52:20.216Z,82.35
2023-01-13T17:54:46.562Z,82.39
2023-01-13T17:57:12.952Z,82.30
2023-01-13T17:59:41.366Z,82.51
2023-01-13T18:02:11.228Z,83.10
2023-01-13T18:04:37.684Z,83.07
2023-01-13T18:07:05.720Z,83.10
2023-01-13T18:09:33.087Z,83.10
2023-01-13T18:12:00.390Z,83.39
2023-01-13T18:14:26.787Z,83.89
2023-01-13T18:16:53.310Z,83.76
2023-01-13T18:19:38.502Z,83.52
2023-01-13T18:22:23.315Z,83.44
2023-01-13T18:25:08.201Z,84.03
2023-01-13T18:27:38.068Z,83.86
2023-01-13T18:30:06.490Z,83.94
2023-01-13T18:32:33.936Z,83.72
2023-01-13T18:35:06.029Z,84.09
2023-01-13T18:37:35.865Z,84.18
2023-01-13T18:40:02.982Z,84.19
2023-01-13T18:42:47.752Z,84.41
2023-01-13T18:45:14.221Z,84.21
2023-01-13T18:47:42.202Z,84.16
2023-01-13T18:50:09.660Z,83.71
2023-01-13T18:52:36.647Z,83.73
2023-01-13T18:55:03.693Z,83.02
2023-01-13T18:57:30.213Z,83.29
2023-01-13T18:59:57.499Z,82.84
2023-01-13T19:02:28.509Z,82.65
2023-01-13T19:04:55.154Z,82.69
2023-01-13T19:07:28.284Z,82.71
2023-01-13T19:09:55.748Z,82.84
2023-01-13T19:12:28.178Z,82.95
2023-01-13T19:14:55.308Z,83.04
2023-01-13T19:17:23.377Z,83.56
2023-01-13T19:19:54.904Z,83.21
2023-01-13T19:22:28.601Z,83.11
2023-01-13T19:24:55.427Z,83.25
2023-01-13T19:27:22.192Z,83.12
2023-01-13T19:29:52.550Z,83.17
2023-01-13T19:32:20.702Z,83.40
2023-01-13T19:34:49.365Z,83.48
2023-01-13T19:37:15.840Z,83.18
2023-01-13T19:39:42.439Z,83.36
2023-01-13T19:42:31.830Z,83.34
2023-01-13T19:45:16.554Z,83.15
2023-01-13T19:47:45.288Z,83.40
2023-01-13T19:50:13.551Z,83.01
2023-01-13T19:52:40.514Z,83.37
2023-01-13T19:55:07.163Z,82.90
2023-01-13T19:57:33.647Z,82.89
2023-01-13T20:00:00.006Z,82.94
2023-01-13T20:02:31.260Z,82.91
2023-01-13T20:05:01.897Z,82.48
2023-01-13T20:07:30.493Z,82.54
2023-01-13T20:09:57.540Z,82.44
2023-01-13T20:12:25.395Z,82.66
2023-01-13T20:14:52.038Z,82.35
2023-01-13T20:17:20.792Z,82.33
2023-01-13T20:19:47.254Z,82.37
2023-01-13T20:22:14.363Z,82.42
2023-01-13T20:24:40.867Z,82.12
2023-01-13T20:27:07.455Z,82.34
2023-01-13T20:29:34.400Z,82.21
2023-01-13T20:32:00.903Z,82.58
2023-01-13T20:34:27.423Z,81.82
2023-01-13T20:36:53.868Z,81.54
2023-01-13T20:39:22.727Z,81.73
2023-01-13T20:42:07.495Z,82.06
2023-01-13T20:44:34.028Z,81.85
2023-01-13T20:47:00.853Z,82.12
2023-01-13T20:49:27.739Z,82.69
2023-01-13T20:51:55.222Z,82.68
2023-01-13T20:54:21.998Z,83.00
2023-01-13T20:56:49.205Z,82.46
2023-01-13T20:59:15.791Z,82.31
2023-01-13T21:01:42.827Z,81.72
2023-01-13T21:04:09.642Z,81.78
2023-01-13T21:06:36.065Z,81.47
2023-01-13T21:09:02.599Z,81.26
2023-01-13T21:11:48.125Z,81.26
2023-01-13T21:14:37.353Z,81.07
2023-01-13T21:17:04.740Z,81.26
2023-01-13T21:19:31.398Z,81.11
2023-01-13T21:21:57.764Z,80.54
2023-01-13T21:24:25.327Z,80.39
2023-01-13T21:27:01.016Z,80.73
2023-01-13T21:29:27.375Z,80.59
2023-01-13T21:31:54.376Z,80.56
2023-01-13T21:34:20.768Z,80.32
2023-01-13T21:36:47.184Z,80.59
2023-01-13T21:39:15.381Z,80.41
2023-01-13T21:42:00.412Z,80.68
2023-01-13T21:44:45.187Z,80.48
2023-01-13T21:47:35.051Z,80.03
2023-01-13T21:50:02.223Z,79.91
2023-01-13T21:52:28.707Z,80.32
2023-01-13T21:55:13.991Z,80.08
2023-01-13T21:57:40.342Z,80.39
2023-01-13T22:00:07.383Z,80.23
2023-01-13T22:02:35.575Z,79.86
2023-01-13T22:05:03.957Z,80.10
2023-01-13T22:07:32.505Z,79.62
2023-01-13T22:09:59.042Z,79.95
2023-01-13T22:12:25.405Z,79.41
2023-01-13T22:14:52.093Z,79.27
2023-01-13T22:17:20.793Z,79.38
2023-01-13T22:19:48.135Z,79.04
2023-01-13T22:22:16.469Z,78.86
2023-01-13T22:24:43.566Z,79.03
2023-01-13T22:27:11.033Z,78.75
2023-01-13T22:29:37.805Z,78.90
2023-01-13T22:32:05.414Z,78.96
2023-01-13T22:34:32.561Z,79.11
2023-01-13T22:36:59.897Z,78.84
2023-01-13T22:39:26.767Z,78.56
2023-01-13T22:41:53.413Z,78.79
2023-01-13T22:44:20.483Z,78.79
2023-01-13T22:46:47.365Z,78.44
2023-01-13T22:49:15.169Z,78.03
2023-01-13T22:51:41.889Z,78.52
2023-01-13T22:54:08.943Z,77.83
2023-01-13T22:56:36.025Z,77.79
2023-01-13T22:59:04.126Z,78.11
2023-01-13T23:01:32.805Z,77.80
2023-01-13T23:03:59.821Z,78.16
2023-01-13T23:06:28.050Z,77.93
2023-01-13T23:08:54.715Z,78.01
2023-01-13T23:11:23.973Z,78.05
2023-01-13T23:13:50.953Z,78.35
2023-01-13T23:16:21.076Z,78.20
2023-01-13T23:18:48.516Z,78.16
2023-01-13T23:21:17.834Z,77.87
2023-01-13T23:23:45.005Z,77.97
2023-01-13T23:26:12.314Z,77.99
2023-01-13T23:28:39.104Z,77.89
2023-01-13T23:31:07.955Z,77.84
2023-01-13T23:33:35.073Z,77.62
2023-01-13T23:36:06.272Z,77.84
2023-01-13T23:38:32.625Z,77.71
2023-01-13T23:41:00.530Z,77.57
2023-01-13T23:43:27.254Z,77.56
2023-01-13T23:46:02.186Z,77.59
2023-01-13T23:48:28.839Z,77.13
2023-01-13T23:51:03.178Z,77.49
2023-01-13T23:53:35.236Z,77.51
2023-01-13T23:56:03.123Z,77.28
2023-01-13T23:58:29.903Z,77.35
